Wartburg, TN (37887)

7:53 PM EDT on March 26, 2017 (GMT -0400)
Coalfield | | Change Station

Elev 1102 ft 36.03 °N, 84.40 °W | Updated 18 seconds ago

Partly Cloudy
Partly Cloudy
70.5 °F
Feels Like 77 °F
N
0.9
Wind Variable Wind from NW
Gusts 2.5 mph

Today
High -- | Low -- °F
--% Chance of Precip.
Yesterday
High -- | Low -- °F
Precip. -- in
Pressure 29.97 in
Visibility 10.0 miles
Clouds Scattered Clouds 5000 ft
Scattered Clouds 6500 ft
Mostly Cloudy 9000 ft
Heat Index 77 °F
Dew Point 54 °F
Humidity 55%
Rainfall 0.85 in
Snow Depth Not available.
7:32 AM 7:55 PM
Waning Crescent, 2% visible
METAR KOQT 262253Z AUTO VRB04KT 10SM SCT050 SCT065 BKN090 22/13 A2999 RMK AO2 SLP148 T02220128
Pressure 29.97 in
Visibility 10.0 miles
Clouds Scattered Clouds 5000 ft
Scattered Clouds 6500 ft
Mostly Cloudy 9000 ft
Heat Index 77 °F
Dew Point 54 °F
Humidity 55%
Rainfall 0.85 in
Snow Depth Not available.
7:32 AM 7:55 PM
Waning Crescent, 2% visible
METAR KOQT 262253Z AUTO VRB04KT 10SM SCT050 SCT065 BKN090 22/13 A2999 RMK AO2 SLP148 T02220128

Get Severe Weather Alerts

Thanks for signing up!

Be on the lookout for a verification email in your inbox.

You'll start receiving the daily forecast at 8 AM.

×

10-Day Weather Forecast

Almanac

Astronomy

Mar. 26, 2017 Rise Set
Actual Time
Civil Twilight
Nautical Twilight
Astronomical Twilight
Moon
Length of Visible Light
Length of Day
Tomorrow will be .
, % of the Moon is Illuminated

Today's Extremes

State Highs State Lows

Community

WunderPhotos

Upload Photos

1,962,540 photos uploaded!

WunderBlog® & News

Nearby

Air Quality

  Air Quality AQ Index Pollutant
Not available.

Snow Depth

Station Depth Elevation

Earthquake Activity

City Distance Mag. Time & Date
Minimum magnitude displayed is 2.5.

Earthquake Activity

City Distance Mag. Time & Date
Minimum magnitude displayed is 2.5.

Coastal Water Temperatures

Place Temperature

Stations

Nearby Weather Stations

Station Location Temp. Windchill Dew Point Humidity Wind Precip. Elev Updated Type
                   

Watches & Warnings

There are currently no watches in effect.